Howe, OK (74940)

4:13 PM CDT on July 13, 2014 (GMT -0500)
LCEM -Howe Middle School (KOKHOWE2) Elev 535 ft | 34.95 °N, 94.64 °W | Change Station

Current weather conditions updated 17 seconds ago

Clear
Clear
95.9 °F
Feels Like 104 °F
N
0.0
Wind Variable Wind from SW
Gusts 0.0 mph

Tomorrow is forecast to be nearly the same temperature as today.

Today
High -- | Low -- °F
--% Chance of Precip.
Yesterday
High -- | Low -- °F
Precip. -- in
6:15 AM 8:33 PM
Full, 97% visible
Pressure 29.99 in
Visibility 10.0 miles
Clouds Clear
Heat Index 104 °F
Dew Point 71 °F
Humidity 45%
Rainfall 1.04 in
Snow Depth Not available.
UV 8 out of 12
Pollen 3.80 out of 12
Air Quality Not available.
Flu Activity Local Activity
METAR KRKR 132055Z AUTO 21005KT 10SM CLR 35/21 A2999 RMK AO2 T03450211

More Conditions Fewer Conditions

Pressure 29.99 in
Visibility 10.0 miles
Clouds Clear
Heat Index 104 °F
Dew Point 71 °F
Humidity 45%
Rainfall 1.04 in
Snow Depth Not available.
UV 8 out of 12
Pollen 3.80 out of 12
Air Quality Not available.
Flu Activity Local Activity
METAR KRKR 132055Z AUTO 21005KT 10SM CLR 35/21 A2999 RMK AO2 T03450211

More Conditions Fewer Conditions

10-Day Weather Forecast

Almanac

Astronomy

Jul. 13, 2014 Rise Set
Actual Time 6:15 AM CDT 8:33 PM CDT
Civil Twilight 5:46 AM CDT 9:02 PM CDT
Nautical Twilight 5:10 AM CDT 9:38 PM CDT
Astronomical Twilight 4:31 AM CDT 10:17 PM CDT
Moon 9:29 PM CDT 7:41 AM CDT
Length of Visible Light 15h 16m
Length of Day
14h 18m
Tomorrow will be 1m 2s shorter.
Full, 97% of the Moon is Illuminated
Today
Full
Jul 18
Last Quarter
Jul 26
New
Aug 3
First Quarter
Aug 10
Full

Today's Extremes

State Highs State Lows

Community

WunderPhotos

Upload Photos

1,733,394 photos uploaded!

Nearby

Snow Depth

Station Depth Elevation
No new snow has been reported.

Earthquake Activity

City Distance Mag. Time & Date
No recent earthquake activity has been reported nearby.
Minimum magnitude displayed is 2.5.

Coastal Water Temperatures

Place Temperature
No Stations Reporting

Nearby Weather Stations

Station Location Temp. Heat Index Dew Point Humidity Wind Precip. Elev Updated Type
LCEM -Howe Middle School, Howe, OK 95.9 °F 104 °F 71 °F 45% SW  at  0.0 mph 0.00 in / hr 535 ft 4:12 PM CDT Rapid Fire
LCEM - LeFlore County EOC, Poteau, OK 95.9 °F 105 °F 72 °F 47% ESE  at  6.0 mph 0.00 in / hr 509 ft 4:13 PM CDT Rapid Fire
RAWS KIAMICHI OK, Talihina, OK 95 °F 103 °F 72 °F 47% SW  at  6 mph 0.00 in / hr 680 ft 2:59 PM CDT MADIS
Hwy 120 Rock Island, Rock Island, OK 94.0 °F 104 °F 73 °F 51% South  at  8.0 mph 0.00 in / hr 509 ft 4:13 PM CDT Rapid Fire

Show More Stations Show Fewer Stations